Main page
METAR-TAF:

METAR-TAF

Airports :

Taiyuan Wusu International Airport

Taiyuan, China

latitude: 37-47N, longitude: 112-33E, elevation: 779 m

Current weather observation

The report was made 28 minutes ago, at 06:00 UTC
Wind 4 kt from the East/Northeast, varying between North/Northeast and South/Southeast
Temperature 5°C
Humidity 38%
Pressure 1030 hPa
Visibility: 4000 m
haze

METAR: ZBYN 240600Z 07002MPS 030V160 4000 HZ NSC 05/M08 Q1030 NOSIG

Time: 14:28 (06:28 UTC)

Forecast

The report was made 3 hours and 25 minutes ago, at 03:03 UTC
Forecast valid from 24 at 06 UTC to 25 at 06 UTC
Wind 8 kt from the East/Northeast
Visibility: 3000 m
haze

TAF: ZBYN 240303Z 2406/2506 07004MPS 3000 HZ NSC TX04/2407Z TNM06/2422Z

Weather observations and forecasts of more than 4000 airports (METAR and TAF reports).

The available stations are represented by yellow and red dots on the map.

Hover mouse over dot to see the name of the station.

Then click to see weather observations and forecasts.

To change the map : click on the green buttons with a black cross to zoom in, on the green button with a dash to zoom out, or on the green arrows for adjacent maps.


METAR-TAF: